Time;durP1;ratioP1;P1;durP2;ratioP2;P2;SDS_P1;SDS_P2;PMS_P1;PMS_P2;Temp;Humidity;BMP_temperature;BMP_pressure;BME280_temperature;BME280_humidity;BME280_pressure;Samples;Min_cycle;Max_cycle;Signal;HPM_P1;HPM_P2
2021/01/10 00:00:21;;;;;;;23.38;14.80;;;2.70;69.90;;;;;;5016848;28;20028;-58
2021/01/10 00:02:48;;;;;;;21.52;14.57;;;2.70;69.90;;;;;;5015731;28;20026;-59
2021/01/10 00:05:21;;;;;;;22.63;15.65;;;2.70;69.80;;;;;;5009078;28;20033;-60
2021/01/10 00:07:48;;;;;;;20.73;12.85;;;2.80;70.00;;;;;;5016486;28;20062;-60
2021/01/10 00:10:15;;;;;;;20.15;12.80;;;2.80;69.90;;;;;;5015584;28;20492;-59
2021/01/10 00:12:41;;;;;;;21.55;14.20;;;2.80;69.70;;;;;;5009919;28;20448;-59
2021/01/10 00:15:11;;;;;;;19.77;13.18;;;2.80;69.50;;;;;;5016074;28;20047;-60
2021/01/10 00:17:41;;;;;;;21.10;12.77;;;2.80;69.60;;;;;;5013671;28;20466;-57
2021/01/10 00:20:11;;;;;;;19.75;13.07;;;2.80;69.60;;;;;;5012419;28;20029;-58
2021/01/10 00:22:36;;;;;;;20.02;13.15;;;2.70;69.70;;;;;;5010156;28;20022;-60
2021/01/10 00:25:10;;;;;;;18.75;12.80;;;2.70;69.80;;;;;;5015078;28;20069;-60
2021/01/10 00:27:36;;;;;;;19.33;12.30;;;2.70;70.00;;;;;;5016276;28;20120;-59
2021/01/10 00:30:06;;;;;;;19.20;12.77;;;2.70;70.00;;;;;;5012752;28;20106;-58
2021/01/10 00:32:32;;;;;;;19.95;12.45;;;2.60;70.00;;;;;;5016437;28;20033;-58
2021/01/10 00:34:58;;;;;;;19.35;12.95;;;2.60;70.00;;;;;;5016090;28;20034;-59
2021/01/10 00:37:24;;;;;;;19.58;13.55;;;2.60;70.20;;;;;;5015521;28;20049;-59
2021/01/10 00:39:51;;;;;;;26.75;13.85;;;2.60;70.20;;;;;;5015771;28;20018;-59
2021/01/10 00:42:17;;;;;;;20.25;12.85;;;2.60;70.20;;;;;;5015051;28;20022;-59
2021/01/10 00:44:45;;;;;;;20.20;13.48;;;2.60;70.20;;;;;;5015110;28;20021;-58
2021/01/10 00:47:11;;;;;;;23.55;14.45;;;2.60;70.40;;;;;;5015672;28;20033;-59
2021/01/10 00:49:38;;;;;;;21.23;13.40;;;2.60;70.40;;;;;;5011906;28;20034;-60
2021/01/10 00:52:05;;;;;;;20.30;13.98;;;2.70;70.30;;;;;;5014868;28;20540;-59
2021/01/10 00:54:31;;;;;;;22.92;13.25;;;2.60;70.40;;;;;;5014960;28;20022;-60
2021/01/10 00:56:57;;;;;;;20.17;13.73;;;2.60;70.50;;;;;;5015249;28;20363;-58
2021/01/10 00:59:23;;;;;;;21.20;13.48;;;2.60;70.50;;;;;;5012817;28;20070;-58
2021/01/10 01:01:50;;;;;;;20.67;13.18;;;2.60;70.40;;;;;;5013242;28;20038;-60
2021/01/10 01:04:16;;;;;;;19.55;13.32;;;2.60;70.40;;;;;;5014994;28;20018;-59
2021/01/10 01:06:42;;;;;;;22.70;13.60;;;2.60;70.60;;;;;;5015706;28;20378;-59
2021/01/10 01:09:07;;;;;;;22.60;13.68;;;2.60;70.70;;;;;;5012754;28;20033;-58
2021/01/10 01:11:35;;;;;;;19.48;12.82;;;2.60;70.70;;;;;;5014900;28;20382;-59
2021/01/10 01:14:02;;;;;;;19.67;13.35;;;2.70;70.90;;;;;;5013964;28;20042;-59
2021/01/10 01:16:28;;;;;;;18.05;12.30;;;2.70;70.90;;;;;;5012704;28;20080;-59
2021/01/10 01:18:54;;;;;;;20.20;13.23;;;2.70;71.10;;;;;;5012963;28;20029;-60
2021/01/10 01:21:20;;;;;;;20.02;12.98;;;2.70;70.90;;;;;;5014260;28;20037;-59
2021/01/10 01:23:48;;;;;;;21.25;13.43;;;2.70;70.90;;;;;;5015217;28;20022;-59
2021/01/10 01:26:17;;;;;;;20.73;12.98;;;2.70;70.80;;;;;;5013017;28;20020;-58
2021/01/10 01:28:44;;;;;;;19.63;12.38;;;2.60;70.70;;;;;;5013843;28;20041;-58
2021/01/10 01:31:12;;;;;;;19.27;12.57;;;2.60;70.70;;;;;;5013737;28;20038;-59
2021/01/10 01:33:38;;;;;;;17.52;12.55;;;2.60;70.70;;;;;;5015157;28;20463;-58
2021/01/10 01:36:04;;;;;;;19.38;12.68;;;2.60;70.80;;;;;;5015313;28;20033;-58
2021/01/10 01:38:30;;;;;;;24.33;13.82;;;2.60;70.80;;;;;;5015036;28;20018;-59
2021/01/10 01:41:00;;;;;;;21.80;14.02;;;2.60;70.90;;;;;;5012592;28;20022;-59
2021/01/10 01:43:26;;;;;;;18.88;12.50;;;2.60;70.80;;;;;;5015257;28;20492;-58
2021/01/10 01:45:52;;;;;;;22.70;14.40;;;2.60;70.80;;;;;;5014697;28;20045;-60
2021/01/10 01:48:18;;;;;;;21.40;14.75;;;2.60;70.60;;;;;;5011779;28;20022;-59
2021/01/10 01:50:44;;;;;;;22.20;14.95;;;2.60;70.90;;;;;;5015159;28;20493;-59
2021/01/10 01:53:10;;;;;;;23.95;13.70;;;2.60;71.10;;;;;;5014816;28;20355;-58
2021/01/10 01:55:37;;;;;;;22.52;13.90;;;2.60;70.90;;;;;;5014545;28;20036;-59
2021/01/10 01:58:06;;;;;;;25.52;15.48;;;2.70;70.90;;;;;;5012749;28;20484;-59
2021/01/10 02:00:32;;;;;;;24.90;16.00;;;2.70;70.80;;;;;;5014143;28;20033;-60
2021/01/10 02:02:58;;;;;;;24.08;15.82;;;2.80;71.00;;;;;;5013990;28;20026;-59
2021/01/10 02:05:28;;;;;;;24.45;16.02;;;2.80;71.00;;;;;;5013295;28;20539;-60
2021/01/10 02:08:01;;;;;;;20.83;13.43;;;2.80;70.90;;;;;;5014394;28;20042;-60
2021/01/10 02:10:30;;;;;;;25.20;16.48;;;2.90;70.80;;;;;;5013892;28;20060;-59
2021/01/10 02:13:00;;;;;;;23.73;15.30;;;2.90;70.50;;;;;;5014135;28;20093;-59
2021/01/10 02:15:29;;;;;;;24.73;14.90;;;2.90;70.70;;;;;;5012254;28;20026;-58
2021/01/10 02:17:56;;;;;;;20.98;13.93;;;2.90;70.70;;;;;;5014017;28;20084;-58
2021/01/10 02:20:33;;;;;;;23.67;15.73;;;3.00;70.70;;;;;;5014546;28;20057;-58
2021/01/10 02:23:04;;;;;;;22.50;15.30;;;3.00;70.80;;;;;;5014201;28;20113;-60
2021/01/10 02:25:32;;;;;;;27.08;17.25;;;3.00;70.70;;;;;;5015655;28;20018;-60
2021/01/10 02:27:59;;;;;;;22.25;14.00;;;3.00;70.40;;;;;;5016369;28;20048;-58
2021/01/10 02:30:26;;;;;;;20.23;13.98;;;3.00;70.40;;;;;;5017744;28;20116;-58
2021/01/10 02:32:59;;;;;;;23.05;15.57;;;3.00;70.50;;;;;;5017865;28;20087;-60
2021/01/10 02:35:26;;;;;;;23.45;15.40;;;3.10;70.30;;;;;;5017395;28;20033;-59
2021/01/10 02:38:18;;;;;;;25.08;15.85;;;3.00;70.30;;;;;;5018014;28;20473;-58
2021/01/10 02:41:11;;;;;;;23.27;16.20;;;3.00;70.20;;;;;;5017545;28;20021;-58
2021/01/10 02:43:40;;;;;;;23.45;15.43;;;3.00;70.20;;;;;;5017577;28;20029;-58
2021/01/10 02:46:06;;;;;;;26.17;16.25;;;3.00;70.30;;;;;;5017511;28;20474;-58
2021/01/10 02:48:32;;;;;;;25.02;16.08;;;3.00;70.50;;;;;;5017816;28;20061;-59
2021/01/10 02:50:58;;;;;;;22.58;13.90;;;3.00;70.20;;;;;;5017805;28;20026;-60
2021/01/10 02:53:24;;;;;;;21.10;13.95;;;3.00;70.30;;;;;;5017703;28;20084;-59
2021/01/10 02:55:50;;;;;;;23.98;14.85;;;3.00;70.20;;;;;;5017128;28;20022;-59
2021/01/10 02:58:23;;;;;;;22.08;14.32;;;3.00;70.30;;;;;;5017446;28;20057;-58
2021/01/10 03:00:51;;;;;;;23.98;15.23;;;3.00;70.40;;;;;;5014823;28;20018;-60
2021/01/10 03:03:18;;;;;;;23.95;15.07;;;3.00;70.30;;;;;;5009088;28;20462;-59
2021/01/10 03:05:45;;;;;;;21.00;14.23;;;3.00;70.40;;;;;;5016609;28;20100;-58
2021/01/10 03:08:12;;;;;;;19.90;12.90;;;3.00;70.40;;;;;;5016985;28;20442;-60
2021/01/10 03:10:38;;;;;;;19.55;13.23;;;3.10;70.40;;;;;;5016698;28;20026;-59
2021/01/10 03:13:04;;;;;;;23.80;15.50;;;3.00;70.20;;;;;;5016806;28;20021;-59
2021/01/10 03:15:32;;;;;;;25.20;15.32;;;3.00;70.20;;;;;;5016998;28;20030;-58
2021/01/10 03:18:15;;;;;;;22.45;13.85;;;3.00;70.40;;;;;;5016338;28;20045;-59
2021/01/10 03:20:40;;;;;;;22.67;15.43;;;3.00;70.30;;;;;;5016193;28;20516;-59
2021/01/10 03:23:06;;;;;;;22.17;14.30;;;3.00;70.30;;;;;;5016623;28;20018;-60
2021/01/10 03:25:32;;;;;;;24.23;14.88;;;3.00;70.30;;;;;;5016475;28;20026;-59
2021/01/10 03:27:57;;;;;;;25.30;16.08;;;3.00;70.20;;;;;;5016511;28;20053;-59
2021/01/10 03:30:23;;;;;;;22.10;13.65;;;3.00;70.20;;;;;;5016379;28;20042;-58
2021/01/10 03:32:49;;;;;;;23.67;15.77;;;3.10;70.20;;;;;;5016186;28;20429;-60
2021/01/10 03:35:15;;;;;;;25.20;15.88;;;3.10;70.30;;;;;;5016460;28;20034;-59
2021/01/10 03:37:41;;;;;;;24.10;16.13;;;3.10;70.20;;;;;;5015744;28;20038;-59
2021/01/10 03:40:08;;;;;;;22.05;13.90;;;3.10;70.20;;;;;;5016014;28;20060;-58
2021/01/10 03:42:34;;;;;;;23.88;14.48;;;3.00;70.10;;;;;;5016427;28;20040;-59
2021/01/10 03:45:00;;;;;;;25.85;16.02;;;3.00;70.00;;;;;;5016507;28;20054;-58
2021/01/10 03:47:26;;;;;;;20.90;13.80;;;3.00;69.90;;;;;;5016115;28;20030;-58
2021/01/10 03:49:52;;;;;;;25.05;16.05;;;3.00;70.80;;;;;;5016422;28;20473;-59
2021/01/10 03:52:17;;;;;;;25.92;15.80;;;3.00;70.30;;;;;;5015229;28;20114;-59
2021/01/10 03:54:43;;;;;;;26.13;16.73;;;3.00;70.10;;;;;;5016149;28;20077;-58
2021/01/10 03:57:09;;;;;;;27.20;16.45;;;3.00;70.20;;;;;;5016566;28;20026;-60
2021/01/10 03:59:34;;;;;;;25.42;16.33;;;3.10;70.40;;;;;;5015702;28;20054;-59
2021/01/10 04:02:00;;;;;;;27.27;17.15;;;3.10;70.50;;;;;;5016179;28;20026;-59
2021/01/10 04:04:26;;;;;;;19.60;14.20;;;3.10;70.40;;;;;;5015675;28;20113;-60
2021/01/10 04:06:51;;;;;;;21.17;14.20;;;3.10;70.30;;;;;;5015823;28;20033;-60
2021/01/10 04:09:17;;;;;;;21.02;13.80;;;3.20;70.40;;;;;;5015721;28;20088;-60
2021/01/10 04:11:43;;;;;;;25.77;14.75;;;3.20;70.30;;;;;;5015966;28;20029;-60
2021/01/10 04:14:08;;;;;;;22.02;14.93;;;3.20;70.00;;;;;;5015483;28;20100;-60
2021/01/10 04:16:34;;;;;;;21.20;13.60;;;3.20;69.70;;;;;;5015529;28;20486;-59
2021/01/10 04:19:00;;;;;;;22.00;14.35;;;3.20;69.70;;;;;;5015277;28;20024;-60
2021/01/10 04:21:33;;;;;;;19.80;13.63;;;3.20;69.80;;;;;;5015554;28;20378;-60
2021/01/10 04:23:59;;;;;;;24.85;16.27;;;3.10;69.70;;;;;;5015393;28;20018;-59
2021/01/10 04:26:25;;;;;;;23.73;14.52;;;3.10;69.70;;;;;;5015781;28;20064;-59
2021/01/10 04:28:51;;;;;;;23.77;14.88;;;3.10;70.00;;;;;;5013270;28;20510;-58
2021/01/10 04:31:17;;;;;;;26.02;15.43;;;3.00;69.90;;;;;;5015057;28;20037;-59
2021/01/10 04:33:43;;;;;;;28.33;16.52;;;3.00;70.70;;;;;;5015670;28;20053;-60
2021/01/10 04:36:08;;;;;;;25.80;15.27;;;2.90;70.20;;;;;;5015362;28;20030;-58
2021/01/10 04:38:34;;;;;;;28.70;17.08;;;2.90;70.10;;;;;;5015629;28;20029;-58
2021/01/10 04:41:01;;;;;;;21.65;14.32;;;2.90;70.20;;;;;;5015353;28;20378;-58
2021/01/10 04:43:28;;;;;;;24.38;15.57;;;2.90;70.10;;;;;;5015657;28;20050;-60
2021/01/10 04:45:55;;;;;;;26.98;16.92;;;2.90;70.10;;;;;;5015504;28;20030;-59
2021/01/10 04:48:22;;;;;;;22.88;14.10;;;2.90;70.20;;;;;;5015234;28;20077;-58
2021/01/10 04:50:48;;;;;;;22.70;14.07;;;2.90;70.30;;;;;;5015848;28;20026;-60
2021/01/10 04:53:18;;;;;;;21.50;13.10;;;2.90;70.20;;;;;;5015045;28;20036;-59
2021/01/10 04:55:46;;;;;;;25.55;17.05;;;2.90;70.40;;;;;;5015105;28;20017;-59
2021/01/10 04:58:12;;;;;;;27.98;17.35;;;2.90;71.30;;;;;;5015038;28;20470;-59
2021/01/10 05:00:40;;;;;;;29.33;16.60;;;3.00;70.80;;;;;;5014696;28;20025;-60
2021/01/10 05:03:08;;;;;;;25.90;16.38;;;3.00;70.90;;;;;;5012903;28;20052;-58
2021/01/10 05:05:35;;;;;;;28.52;16.77;;;3.00;70.90;;;;;;5015325;28;20026;-58
2021/01/10 05:08:05;;;;;;;23.25;15.82;;;3.10;70.90;;;;;;5015364;28;20048;-59
2021/01/10 05:10:31;;;;;;;23.67;16.02;;;3.20;70.90;;;;;;5014878;28;20034;-58
2021/01/10 05:12:57;;;;;;;24.85;16.33;;;3.20;70.80;;;;;;5015099;28;20022;-60
2021/01/10 05:15:22;;;;;;;25.83;15.75;;;3.30;70.80;;;;;;5015010;28;20065;-58
2021/01/10 05:17:58;;;;;;;26.83;15.80;;;3.30;70.60;;;;;;5015206;28;20045;-58
2021/01/10 05:20:29;;;;;;;26.70;15.95;;;3.40;70.50;;;;;;5015160;28;20018;-60
2021/01/10 05:22:55;;;;;;;22.35;14.68;;;3.40;70.50;;;;;;5014896;28;20030;-59
2021/01/10 05:25:21;;;;;;;27.23;16.52;;;3.40;70.20;;;;;;5015635;28;20053;-60
2021/01/10 05:27:53;;;;;;;26.75;17.50;;;3.50;70.30;;;;;;5014841;28;20133;-59
2021/01/10 05:30:32;;;;;;;22.50;15.70;;;3.40;70.00;;;;;;5015182;28;20060;-58
2021/01/10 05:33:08;;;;;;;24.85;16.17;;;3.50;70.10;;;;;;5014823;28;20105;-58
2021/01/10 05:35:54;;;;;;;21.55;14.73;;;3.40;69.90;;;;;;5014842;28;20113;-59
2021/01/10 05:38:38;;;;;;;28.95;17.67;;;3.40;70.00;;;;;;5015062;28;20026;-58
2021/01/10 05:41:10;;;;;;;21.98;14.10;;;3.40;70.30;;;;;;5003305;28;20018;-60
2021/01/10 05:43:36;;;;;;;23.38;16.02;;;3.40;70.10;;;;;;5015121;28;20029;-59
2021/01/10 05:46:18;;;;;;;27.00;16.23;;;3.40;70.00;;;;;;5014893;28;20470;-59
2021/01/10 05:48:45;;;;;;;25.17;16.08;;;3.50;70.40;;;;;;5014517;28;20061;-58
2021/01/10 05:51:12;;;;;;;21.02;13.98;;;3.50;70.30;;;;;;5014648;28;20037;-59
2021/01/10 05:53:41;;;;;;;27.92;17.30;;;3.50;70.10;;;;;;5014592;28;20030;-59
2021/01/10 05:56:07;;;;;;;24.80;16.45;;;3.50;69.90;;;;;;5001273;28;20030;-60
2021/01/10 05:58:33;;;;;;;26.17;17.40;;;3.50;70.00;;;;;;5014579;28;20135;-60
2021/01/10 06:01:08;;;;;;;22.25;14.52;;;3.50;70.10;;;;;;5017572;28;20076;-59
2021/01/10 06:03:35;;;;;;;23.13;16.13;;;3.60;70.00;;;;;;5017995;28;20030;-59
2021/01/10 06:06:05;;;;;;;25.55;16.58;;;3.50;69.80;;;;;;5017616;28;20030;-58
2021/01/10 06:08:39;;;;;;;23.15;14.85;;;3.60;69.80;;;;;;5018295;28;20034;-57
2021/01/10 06:11:23;;;;;;;20.30;14.40;;;3.50;69.70;;;;;;5017836;28;20010;-57
2021/01/10 06:13:49;;;;;;;20.55;14.55;;;3.50;69.80;;;;;;5018136;28;20470;-59
2021/01/10 06:16:17;;;;;;;22.95;14.20;;;3.40;69.70;;;;;;5017845;28;20030;-60
2021/01/10 06:18:50;;;;;;;19.70;13.38;;;3.40;69.90;;;;;;5017777;28;20025;-59
2021/01/10 06:21:19;;;;;;;22.88;14.20;;;3.30;70.10;;;;;;5017765;28;20076;-58
2021/01/10 06:23:48;;;;;;;23.45;14.57;;;3.30;70.10;;;;;;5017979;28;20022;-59
2021/01/10 06:26:17;;;;;;;22.83;14.70;;;3.30;70.40;;;;;;5017882;28;20367;-59
2021/01/10 06:28:51;;;;;;;22.17;13.98;;;3.20;70.50;;;;;;5017005;28;20041;-58
2021/01/10 06:31:21;;;;;;;23.10;14.50;;;3.30;70.70;;;;;;5015127;28;20036;-58
2021/01/10 06:33:49;;;;;;;22.25;14.52;;;3.30;71.50;;;;;;5017480;28;20073;-59
2021/01/10 06:36:19;;;;;;;26.48;16.48;;;3.20;70.90;;;;;;5017329;28;20037;-59
2021/01/10 06:38:50;;;;;;;25.88;16.73;;;3.30;71.10;;;;;;5017196;28;20415;-59
2021/01/10 06:41:24;;;;;;;27.20;18.10;;;3.30;71.80;;;;;;5017920;28;20041;-60
2021/01/10 06:44:01;;;;;;;31.42;19.77;;;3.30;71.30;;;;;;5017866;28;20101;-59
2021/01/10 06:46:27;;;;;;;25.98;17.83;;;3.40;71.40;;;;;;5017216;28;20479;-59
2021/01/10 06:48:53;;;;;;;32.38;19.27;;;3.40;71.40;;;;;;5017931;28;20032;-60
2021/01/10 06:51:22;;;;;;;27.13;17.92;;;3.50;71.40;;;;;;5017788;28;20032;-58
2021/01/10 06:53:49;;;;;;;28.65;18.05;;;3.60;71.40;;;;;;5017309;28;20037;-59
2021/01/10 06:56:15;;;;;;;25.02;16.90;;;3.70;71.30;;;;;;5017161;28;20545;-59
2021/01/10 06:59:12;;;;;;;23.08;15.95;;;3.70;71.00;;;;;;5016908;28;20429;-60
2021/01/10 07:01:52;;;;;;;27.95;18.27;;;3.80;70.70;;;;;;5016899;28;20100;-60
2021/01/10 07:04:21;;;;;;;24.05;16.67;;;3.80;70.70;;;;;;5008945;28;20044;-59
2021/01/10 07:06:53;;;;;;;23.45;16.58;;;3.80;70.90;;;;;;5017726;28;20036;-59
2021/01/10 07:09:21;;;;;;;29.27;18.02;;;3.90;71.00;;;;;;5016666;28;20026;-59
2021/01/10 07:11:49;;;;;;;24.90;17.52;;;3.90;70.70;;;;;;5017292;28;20022;-60
2021/01/10 07:14:18;;;;;;;27.52;16.23;;;3.90;70.60;;;;;;5017245;28;20038;-58
2021/01/10 07:16:45;;;;;;;26.42;18.30;;;3.90;70.50;;;;;;5017578;28;20034;-58
2021/01/10 07:19:12;;;;;;;24.35;16.40;;;4.00;70.40;;;;;;5017397;28;20030;-59
2021/01/10 07:21:44;;;;;;;24.25;15.90;;;4.00;70.60;;;;;;5017639;28;20070;-58
2021/01/10 07:24:12;;;;;;;21.67;15.57;;;4.00;70.50;;;;;;5017981;28;20018;-60
2021/01/10 07:26:59;;;;;;;25.88;18.02;;;4.10;70.70;;;;;;5017792;28;20029;-60
2021/01/10 07:29:35;;;;;;;27.75;17.65;;;4.10;70.80;;;;;;5017184;28;20114;-60
2021/01/10 07:32:11;;;;;;;23.60;16.30;;;4.20;70.70;;;;;;5017346;28;20025;-60
2021/01/10 07:34:57;;;;;;;28.63;16.63;;;4.20;70.50;;;;;;5017862;28;20029;-60
2021/01/10 07:37:25;;;;;;;24.40;16.45;;;4.30;70.50;;;;;;5016474;28;20513;-62
2021/01/10 07:39:55;;;;;;;28.20;18.95;;;4.30;70.30;;;;;;5017350;28;20032;-61
2021/01/10 07:42:24;;;;;;;27.38;17.90;;;4.40;70.30;;;;;;5017955;28;20033;-59
2021/01/10 07:44:51;;;;;;;22.00;14.88;;;4.50;70.20;;;;;;5017826;28;20072;-59
2021/01/10 07:47:29;;;;;;;20.75;13.80;;;4.60;70.20;;;;;;5018217;28;20037;-60
2021/01/10 07:49:57;;;;;;;20.88;13.32;;;4.70;69.60;;;;;;5017181;28;20409;-60
2021/01/10 07:52:52;;;;;;;25.33;15.60;;;4.70;68.80;;;;;;5016782;28;20100;-60
2021/01/10 07:55:18;;;;;;;24.17;15.40;;;4.80;68.90;;;;;;5016418;28;20045;-60
2021/01/10 07:57:51;;;;;;;22.40;14.57;;;4.80;69.00;;;;;;5016151;28;20032;-60
2021/01/10 08:00:20;;;;;;;23.20;15.30;;;4.80;68.90;;;;;;5015962;28;20026;-60
2021/01/10 08:02:48;;;;;;;22.80;15.18;;;4.90;68.90;;;;;;5015881;28;20068;-61
2021/01/10 08:05:20;;;;;;;25.42;16.20;;;4.90;68.80;;;;;;5016035;28;20053;-60
2021/01/10 08:08:04;;;;;;;24.92;15.18;;;4.90;68.50;;;;;;5015928;28;20021;-60
2021/01/10 08:10:46;;;;;;;20.42;14.18;;;5.00;68.30;;;;;;5015827;28;20022;-60
2021/01/10 08:13:40;;;;;;;23.30;14.77;;;5.10;68.30;;;;;;5003507;28;20030;-60
2021/01/10 08:16:32;;;;;;;20.70;14.40;;;5.10;68.20;;;;;;5016129;28;20037;-60
2021/01/10 08:19:03;;;;;;;22.05;13.52;;;5.10;68.50;;;;;;5016390;28;20028;-60
2021/01/10 08:21:30;;;;;;;20.88;14.10;;;5.10;68.10;;;;;;5016280;28;20470;-60
2021/01/10 08:23:57;;;;;;;23.33;15.38;;;5.20;68.00;;;;;;5015638;28;20030;-58
2021/01/10 08:26:23;;;;;;;24.75;16.40;;;5.20;67.70;;;;;;5016156;28;20121;-62
2021/01/10 08:28:52;;;;;;;23.00;15.32;;;5.20;67.80;;;;;;5015904;28;20050;-60
2021/01/10 08:31:21;;;;;;;23.85;14.73;;;5.20;67.70;;;;;;5013859;28;20371;-60
2021/01/10 08:33:50;;;;;;;24.30;15.70;;;5.30;67.70;;;;;;5013282;28;20025;-60
2021/01/10 08:36:21;;;;;;;22.70;15.00;;;5.30;67.70;;;;;;5015644;28;20068;-60
2021/01/10 08:38:55;;;;;;;19.43;13.67;;;5.30;67.50;;;;;;5015143;28;20033;-59
2021/01/10 08:41:32;;;;;;;22.55;14.73;;;5.30;67.30;;;;;;5015941;28;20034;-59
2021/01/10 08:44:00;;;;;;;23.00;13.95;;;5.20;67.30;;;;;;5013540;28;20025;-60
2021/01/10 08:46:31;;;;;;;21.45;13.75;;;5.20;67.30;;;;;;5014959;28;20036;-60
2021/01/10 08:48:57;;;;;;;22.65;14.70;;;5.20;67.40;;;;;;5014510;28;20036;-60
2021/01/10 08:51:41;;;;;;;20.83;14.77;;;5.10;67.60;;;;;;5011979;28;20033;-59
2021/01/10 08:54:08;;;;;;;22.80;13.82;;;5.20;67.80;;;;;;5015883;28;20041;-60
2021/01/10 08:56:35;;;;;;;22.48;14.95;;;5.20;67.60;;;;;;5010469;28;20561;-60
2021/01/10 08:59:01;;;;;;;23.38;15.23;;;5.20;67.70;;;;;;5015703;28;20024;-59
2021/01/10 09:01:28;;;;;;;25.40;16.20;;;5.20;67.80;;;;;;5014825;28;20382;-58
2021/01/10 09:04:11;;;;;;;27.50;16.73;;;5.20;68.00;;;;;;5011047;28;20023;-60
2021/01/10 09:07:00;;;;;;;26.55;17.23;;;5.20;67.90;;;;;;5010753;28;20022;-59
2021/01/10 09:09:32;;;;;;;27.60;16.67;;;5.30;67.90;;;;;;5014966;28;20032;-60
2021/01/10 09:12:19;;;;;;;25.10;16.40;;;5.40;68.00;;;;;;5015080;28;20026;-60
2021/01/10 09:14:47;;;;;;;26.30;16.90;;;5.40;67.70;;;;;;5014738;28;20040;-59
2021/01/10 09:17:15;;;;;;;20.45;14.55;;;5.40;67.90;;;;;;5015464;28;20026;-58
2021/01/10 09:19:42;;;;;;;23.40;14.77;;;5.50;67.60;;;;;;5015417;28;20477;-60
2021/01/10 09:22:08;;;;;;;22.45;15.23;;;5.60;67.20;;;;;;5011590;28;20446;-59
2021/01/10 09:24:39;;;;;;;24.27;17.13;;;5.50;66.90;;;;;;5015051;28;20052;-58
2021/01/10 09:27:09;;;;;;;23.13;15.27;;;5.50;67.20;;;;;;5014636;28;20029;-59
2021/01/10 09:29:35;;;;;;;23.30;14.52;;;5.50;67.60;;;;;;5014519;28;20132;-61
2021/01/10 09:32:02;;;;;;;22.23;15.10;;;5.50;67.10;;;;;;5001375;28;20121;-60
2021/01/10 09:34:28;;;;;;;25.88;15.95;;;5.50;67.10;;;;;;5016391;28;20036;-60
2021/01/10 09:37:01;;;;;;;24.10;14.90;;;5.50;67.10;;;;;;5018527;28;20108;-59
2021/01/10 09:39:44;;;;;;;21.02;15.23;;;5.50;67.10;;;;;;5018851;28;20068;-59
2021/01/10 09:42:11;;;;;;;23.08;15.05;;;5.50;67.10;;;;;;5018455;28;20022;-59
2021/01/10 09:44:37;;;;;;;23.15;14.57;;;5.60;67.40;;;;;;5018361;28;20036;-59
2021/01/10 09:47:04;;;;;;;24.90;16.00;;;5.60;67.10;;;;;;5018639;28;20077;-60
2021/01/10 09:49:30;;;;;;;24.55;16.10;;;5.60;67.20;;;;;;5018592;28;20022;-59
2021/01/10 09:51:57;;;;;;;24.95;15.20;;;5.60;67.10;;;;;;5018602;28;20030;-59
2021/01/10 09:54:32;;;;;;;23.30;15.43;;;5.60;67.10;;;;;;5018307;28;20037;-57
2021/01/10 09:57:16;;;;;;;21.77;14.10;;;5.60;67.00;;;;;;5018935;28;20425;-60
2021/01/10 09:59:53;;;;;;;20.83;13.50;;;5.70;66.90;;;;;;5019144;28;20029;-60
2021/01/10 10:02:25;;;;;;;20.75;13.85;;;5.70;66.80;;;;;;5019231;28;20085;-60
2021/01/10 10:05:06;;;;;;;20.70;13.95;;;5.80;67.00;;;;;;5019623;28;20033;-60
2021/01/10 10:07:41;;;;;;;22.23;14.47;;;5.80;66.70;;;;;;5018194;28;20029;-61
2021/01/10 10:10:21;;;;;;;21.15;13.50;;;5.70;66.90;;;;;;5018648;28;20243;-60
2021/01/10 10:12:52;;;;;;;19.85;13.32;;;5.80;66.80;;;;;;5018162;28;20021;-58
2021/01/10 10:15:18;;;;;;;24.25;14.88;;;5.80;66.70;;;;;;5018142;28;20035;-60
2021/01/10 10:17:44;;;;;;;20.75;13.45;;;5.80;66.60;;;;;;5018128;28;20052;-60
2021/01/10 10:20:11;;;;;;;23.17;14.32;;;5.80;66.40;;;;;;5018641;28;20061;-59
2021/01/10 10:22:38;;;;;;;21.85;14.18;;;5.80;66.20;;;;;;5018591;28;20097;-58
2021/01/10 10:25:08;;;;;;;22.25;14.50;;;5.80;66.00;;;;;;5017768;28;20010;-58
2021/01/10 10:27:51;;;;;;;23.13;13.85;;;5.70;66.60;;;;;;5017775;28;20052;-59
2021/01/10 10:30:18;;;;;;;22.45;13.73;;;5.70;66.90;;;;;;5016922;28;20386;-59
2021/01/10 10:32:43;;;;;;;22.80;14.50;;;5.70;66.40;;;;;;5016453;28;20041;-59
2021/01/10 10:35:09;;;;;;;19.42;13.52;;;5.70;66.50;;;;;;5015953;28;20398;-59
2021/01/10 10:37:35;;;;;;;22.50;14.15;;;5.70;66.60;;;;;;5016596;28;20026;-59
2021/01/10 10:40:03;;;;;;;24.08;14.40;;;5.80;66.70;;;;;;5016540;28;20021;-58
2021/01/10 10:42:28;;;;;;;24.45;15.93;;;5.80;66.80;;;;;;5015940;28;20077;-59
2021/01/10 10:44:54;;;;;;;22.25;14.23;;;5.80;66.60;;;;;;5015830;28;20105;-61
2021/01/10 10:47:20;;;;;;;22.60;15.40;;;5.90;66.40;;;;;;5016005;28;20034;-60
2021/01/10 10:49:45;;;;;;;20.80;14.18;;;5.90;66.30;;;;;;5016256;28;20101;-58
2021/01/10 10:52:13;;;;;;;20.92;14.15;;;5.90;66.30;;;;;;5015734;28;20026;-57
2021/01/10 10:54:39;;;;;;;22.52;14.20;;;5.80;65.80;;;;;;5016542;28;20052;-60
2021/01/10 10:57:09;;;;;;;20.25;14.25;;;5.80;66.00;;;;;;5015557;28;20038;-60
2021/01/10 10:59:37;;;;;;;21.48;14.00;;;5.80;65.90;;;;;;5016088;28;20381;-59
2021/01/10 11:02:03;;;;;;;19.52;13.13;;;5.80;66.20;;;;;;5016401;28;20461;-58
2021/01/10 11:04:29;;;;;;;23.27;15.18;;;5.80;66.50;;;;;;5014735;28;20033;-60
2021/01/10 11:06:54;;;;;;;22.35;14.63;;;5.80;66.20;;;;;;5012118;28;20505;-60
2021/01/10 11:09:20;;;;;;;23.92;15.40;;;5.80;66.40;;;;;;5016414;28;20040;-59
2021/01/10 11:11:50;;;;;;;23.90;15.27;;;5.80;66.50;;;;;;5016020;28;20032;-60
2021/01/10 11:14:18;;;;;;;22.83;15.02;;;5.80;66.50;;;;;;5015832;28;20021;-60
2021/01/10 11:16:46;;;;;;;23.05;14.80;;;5.90;66.50;;;;;;5015948;28;20030;-60
2021/01/10 11:19:13;;;;;;;22.75;14.40;;;5.90;66.30;;;;;;5015524;28;20018;-60
2021/01/10 11:21:41;;;;;;;19.13;13.55;;;5.90;66.20;;;;;;5015530;28;20470;-60
2021/01/10 11:24:08;;;;;;;21.73;14.85;;;5.90;66.10;;;;;;5015592;28;20053;-58
2021/01/10 11:26:35;;;;;;;20.90;14.80;;;5.90;66.00;;;;;;5015190;28;20433;-60
2021/01/10 11:29:04;;;;;;;22.55;14.18;;;5.90;66.10;;;;;;4991953;28;706021;-61
2021/01/10 11:31:31;;;;;;;21.98;14.82;;;5.90;66.20;;;;;;5012937;28;20080;-58
2021/01/10 11:33:57;;;;;;;19.33;12.70;;;5.90;66.30;;;;;;5017005;28;20026;-60
2021/01/10 11:36:22;;;;;;;23.15;14.75;;;5.90;66.40;;;;;;5016457;28;20581;-60
2021/01/10 11:38:49;;;;;;;21.10;13.93;;;5.90;66.20;;;;;;5016084;28;20029;-60
2021/01/10 11:41:16;;;;;;;21.27;14.13;;;5.90;65.80;;;;;;5016446;28;20030;-60
2021/01/10 11:43:42;;;;;;;21.83;13.13;;;5.90;65.70;;;;;;5016665;28;20041;-60
2021/01/10 11:46:09;;;;;;;20.70;13.88;;;5.90;65.90;;;;;;5016637;28;20410;-60
2021/01/10 11:48:36;;;;;;;22.13;13.70;;;5.80;65.70;;;;;;5016796;28;20071;-60
2021/01/10 11:51:03;;;;;;;24.10;15.85;;;5.80;66.00;;;;;;5017556;28;20397;-61
2021/01/10 11:53:29;;;;;;;21.65;14.32;;;5.80;66.20;;;;;;5011355;28;20026;-62
2021/01/10 11:55:55;;;;;;;21.20;13.25;;;5.80;66.50;;;;;;5010720;28;20033;-61
2021/01/10 11:58:21;;;;;;;24.15;14.80;;;5.80;66.50;;;;;;5007284;28;20381;-60
2021/01/10 12:00:53;;;;;;;21.80;13.60;;;5.90;66.30;;;;;;5013862;28;20033;-60
2021/01/10 12:03:20;;;;;;;20.13;13.32;;;5.90;66.10;;;;;;5008616;28;20033;-60
2021/01/10 12:05:47;;;;;;;24.40;15.88;;;5.90;66.00;;;;;;5006385;28;20024;-60
2021/01/10 12:08:13;;;;;;;21.00;14.20;;;5.90;65.90;;;;;;5011330;28;20038;-61
2021/01/10 12:10:39;;;;;;;24.75;15.15;;;5.90;66.10;;;;;;5012846;28;20057;-59
2021/01/10 12:13:05;;;;;;;29.27;16.88;;;5.80;66.10;;;;;;5007592;28;20106;-63
2021/01/10 12:15:33;;;;;;;26.10;16.17;;;5.90;66.30;;;;;;5006008;28;20096;-64
2021/01/10 12:18:05;;;;;;;27.65;16.27;;;5.90;66.50;;;;;;5002717;28;20475;-64
2021/01/10 12:20:32;;;;;;;22.42;13.57;;;5.90;66.00;;;;;;5000456;28;20026;-63
2021/01/10 12:22:58;;;;;;;20.38;14.32;;;5.90;66.00;;;;;;5007796;28;20053;-65
2021/01/10 12:25:24;;;;;;;22.40;14.25;;;5.90;66.00;;;;;;5013688;28;20106;-64
2021/01/10 12:27:50;;;;;;;26.02;16.77;;;5.80;66.00;;;;;;5006527;28;20406;-65
2021/01/10 12:30:17;;;;;;;24.15;15.77;;;5.80;66.30;;;;;;5010823;28;20030;-65
2021/01/10 12:32:43;;;;;;;22.05;13.68;;;5.90;66.50;;;;;;5009980;28;20170;-65
2021/01/10 12:35:11;;;;;;;21.50;14.25;;;5.90;66.40;;;;;;5003320;28;20053;-65
2021/01/10 12:37:37;;;;;;;24.38;14.20;;;5.90;66.10;;;;;;5009785;28;20072;-65
2021/01/10 12:40:06;;;;;;;24.27;15.43;;;5.90;65.70;;;;;;5003611;28;20025;-65
2021/01/10 12:42:32;;;;;;;22.83;14.35;;;5.90;65.90;;;;;;5003605;28;20037;-65
2021/01/10 12:44:58;;;;;;;25.55;15.45;;;5.80;65.90;;;;;;5006891;28;20018;-65